Tiempo atmosférico en la estación meteorológica de Sabiñanigo, Huesca (775 m.)



Fecha
DESCASC
Temp. máxima en grados centígrados (hora)
DESCASC
Temp. mínima en grados centígrados (hora)
DESCASC
Temp. media en grados centígrados
DESCASC
Racha de viento máxima en m/sg (hora)
DESCASC
Velocidad máxima media en intervalos de 10 minutos(hora)
DESCASC
Precipitaciones diarias en mm
DESCASC
Precipitaciones de 00:00 a 06:00 en mm
DESCASC
Precipitaciones de 06:00 a 12:00 en mm
DESCASC
Precipitaciones de 12:00 a 18:00 en mm
DESCASC
Precipitaciones de 18:00 a 24:00 en mm
DESCASC
18-08-2019 34.3 (14:50) 16.9 (07:30) 25.6 8.33 (22:00) 5 (21:50) 0 0 0 0 0
17-08-2019 34.6 (15:50) 14.1 (07:30) 24.3 2.5 (22:30) 1.67 (13:20) 0 0 0 0 0
16-08-2019 31.4 (14:40) 8.8 (07:40) 20.1 6.67 (15:50) 2.5 (19:30) 0 0 0 0 0
15-08-2019 28.5 (16:40) 13.4 (00:00) 20.9 10.28 (18:50) 4.72 (20:00) 0 0 0 0 0
14-08-2019 29.5 (17:20) 7.5 (00:00) 18.5 10.28 (18:10) 4.72 (18:10) 0 0 0 0 0
13-08-2019 25.2 (18:00) 10.2 (00:00) 17.7 8.61 (17:30) 4.17 (17:40) 0 0 0 0 0
12-08-2019 24.6 (16:20) 11.7 (00:00) 18.2 10.28 (15:50) 6.11 (14:50) 0 0 0 0 0
11-08-2019 27.5 (18:10) 17.1 (00:00) 22.3 9.44 (09:50) 4.72 (09:50) 0.8 0 0.8 0 0
10-08-2019 29.6 (15:10) 15.5 (00:00) 22.6 7.22 (13:20) 3.61 (13:30) 0 0 0 0 0
09-08-2019 34.9 (18:00) 17.5 (00:00) 26.2 10.28 (21:10) 5.83 (21:20) 0 0 0 0 0
08-08-2019 32.9 (16:50) 17.6 (00:00) 25.3 3.61 (11:20) 2.78 (14:40) 0 0 0 0 0
07-08-2019 29.7 (16:00) 18.9 (00:00) 24.3 8.61 (16:10) 3.61 (16:10) 0 0 0 0 0
06-08-2019 33.9 (17:50) 16.6 (00:00) 25.3 4.72 (15:10) 2.78 (10:30) 0 0 0 0 0
05-08-2019 34.7 (16:30) 16 (00:00) 25.4 3.33 (20:50) 1.94 (19:50) 0 0 0 0 0
04-08-2019 35.3 (16:50) 15.6 (00:00) 25.4 4.17 (21:30) 2.5 (21:30) 0 0 0 0 0
03-08-2019 34.3 (16:10) 12.5 (00:00) 23.4 3.89 (21:00) 2.5 (21:00) 0 0 0 0 0
02-08-2019 31.2 (17:10) 13.7 (00:00) 22.5 7.78 (14:10) 2.78 (14:00) 0 0 0 0 0
01-08-2019 30.9 (16:00) 16.2 (00:00) 23.6 8.33 (11:20) 5 (11:10) 2 2 0 0 0
31-07-2019 30 (16:40) 8.2 (00:00) 19.1 5.83 (19:20) 3.61 (19:20) 0 0 0 0 0
30-07-2019 26.1 (15:40) 14.3 (00:00) 20.2 11.11 (17:10) 5.83 (19:50) 0 0 0 0 0
29-07-2019 30.6 (17:10) 9.7 (00:00) 20.2 5.56 (22:30) 3.06 (22:40) 0 0 0 0 0
28-07-2019 25 (17:40) 9 (00:00) 17 8.06 (20:20) 5 (18:50) 0 0 0 0 0
27-07-2019 20.7 (14:30) 13.8 (00:00) 17.3 10 (18:50) 5.56 (19:00) 2 0.2 1.8 0 0
26-07-2019 25.6 (00:00) 16.2 (00:00) 20.9 9.44 (19:40) 4.72 (19:50) 10.4 0 0.4 3.6 6.4
25-07-2019 37 (15:50) 17.6 (00:00) 27.3 6.67 (20:00) 2.78 (20:30) 0 0 0 0 0
24-07-2019 36.9 (16:30) 16.5 (00:00) 26.7 4.72 (23:30) 3.06 (23:30) 0 0 0 0 0
23-07-2019 36.9 (17:00) 16.2 (00:00) 26.6 3.33 (00:20) 2.22 (20:50) 0 0 0 0 0
22-07-2019 36.7 (15:10) 17.4 (00:00) 27.1 3.61 (22:10) 2.22 (23:50) 0 0 0 0 0

Gráficas

Temp. máximas Temp. mínimas Temp. medias Precipitaciones Rachas de viento máximas Velocidades máximas media en intervalos de 10 minutos

Datos horarios

Fecha y hora oficial Temperatura (ºC) Velocidad del viento (km/h) Dirección del viento Racha (km/h) Dirección de racha Precipitación (mm) Presión (hPa) Tendencia (hPa) Humedad (%)
2019-08-20 23:00:00 16.7 0 Calma 8 Nordeste 0 -- -- 72
2019-08-20 22:00:00 18.4 5 Norte 12 Norte 0 -- -- 61
2019-08-20 21:00:00 20.8 4 Noroeste 21 Noroeste 0 -- -- 56
2019-08-20 20:00:00 22.5 10 Oeste 22 Sudoeste 0 -- -- 51
2019-08-20 19:00:00 24.3 11 Oeste 18 Oeste 0 -- -- 44
2019-08-20 18:00:00 23.4 5 Sudoeste 15 Sudoeste 0 -- -- 47
2019-08-20 17:00:00 23.5 6 Sudoeste 16 Oeste 0 -- -- 50
2019-08-20 16:00:00 23.5 10 Sudoeste 18 Sudoeste 0 -- -- 51
2019-08-20 15:00:00 21.1 4 Nordeste 17 Oeste 0 -- -- 62
2019-08-20 14:00:00 19.7 10 Oeste 18 Oeste 0 -- -- 69
2019-08-20 13:00:00 17.2 9 Oeste 20 Noroeste 0 -- -- 81
2019-08-20 12:00:00 16.5 7 Oeste 24 Oeste 0 -- -- 91
2019-08-20 11:00:00 15.1 6 Noroeste 15 Este 0.2 -- -- 96
2019-08-20 10:00:00 14.8 9 Sudeste 19 Oeste 1.4 -- -- 96
2019-08-20 09:00:00 14.9 15 Oeste 30 Oeste 0.8 -- -- 96
2019-08-20 08:00:00 15.1 3 Este 10 Sudoeste 2.4 -- -- 97
2019-08-20 07:00:00 15.1 0 Calma 13 Sur 4.2 -- -- 97
2019-08-20 06:00:00 15.1 6 Sur 11 Sur 3.4 -- -- 96
2019-08-20 05:00:00 15.1 3 Sur 7 Sur 4.8 -- -- 95
2019-08-20 04:00:00 15.2 2 Sudeste 10 Noroeste 3.4 -- -- 95
2019-08-20 03:00:00 15.2 4 Norte 9 Sur 4 -- -- 93
2019-08-20 02:00:00 15.4 5 Norte 18 Norte 1.4 -- -- 90
2019-08-20 01:00:00 15.7 8 Noroeste 14 Noroeste 1 -- -- 90
2019-08-20 00:00:00 16.1 6 Norte 12 Norte 1.4 -- -- 89
2019-08-19 23:00:00 18.3 5 Nordeste 20 Este 0.8 -- -- 85
2019-08-19 22:00:00 20.2 3 Sur 17 Noroeste 0 -- -- 69
2019-08-19 21:00:00 20.9 3 Sudoeste 15 Oeste 0 -- -- 66
2019-08-19 20:00:00 21.5 5 Oeste 18 Sudoeste 0 -- -- 62
2019-08-19 19:00:00 22.5 9 Oeste 22 Oeste 0 -- -- 56
2019-08-19 18:00:00 24.5 5 Sudeste 15 Este 0 -- -- 52
2019-08-19 17:00:00 25.6 10 Sudeste 18 Sudeste 0 -- -- 46
2019-08-19 16:00:00 26 10 Este 21 Sur 0 -- -- 46
2019-08-19 15:00:00 25.4 11 Sur 23 Sur 0 -- -- 53
2019-08-19 14:00:00 24.5 4 Oeste 14 Oeste 0 -- -- 52
2019-08-19 13:00:00 22.6 8 Oeste 18 Oeste 0 -- -- 52
2019-08-19 12:00:00 21.4 10 Oeste 21 Oeste 0 -- -- 55
2019-08-19 11:00:00 20.7 2 Sudeste 8 Nordeste 0 -- -- 57
2019-08-19 10:00:00 18.1 2 Sudoeste 10 Oeste 0 -- -- 64
2019-08-19 09:00:00 16.6 5 Sudoeste 11 Sudoeste 0 -- -- 66
2019-08-19 08:00:00 15.9 4 Oeste 12 Noroeste 0 -- -- 69
2019-08-19 07:00:00 16.2 3 Oeste 12 Sudoeste 0 -- -- 69
2019-08-19 06:00:00 16.5 3 Sudeste 10 Oeste 0 -- -- 71
2019-08-19 05:00:00 16.9 5 Sudoeste 14 Oeste 0 -- -- 70
2019-08-19 04:00:00 17.4 4 Oeste 14 Oeste 0 -- -- 70
2019-08-19 03:00:00 18.2 5 Oeste 12 Oeste 0 -- -- 70
2019-08-19 02:00:00 18.8 3 Oeste 15 Noroeste 0 -- -- 69
2019-08-19 01:00:00 19.5 6 Oeste 13 Oeste 0 -- -- 68
2019-08-19 00:00:00 20.8 3 Norte 14 Noroeste 0 -- -- 65
2019-08-18 23:00:00 21.9 6 Nordeste 27 Oeste 0 -- -- 62
2019-08-18 22:00:00 23.2 18 Oeste 30 Oeste 0 -- -- 58
2019-08-18 21:00:00 26.6 14 Oeste 28 Oeste 0 -- -- 49
2019-08-18 20:00:00 30.7 10 Oeste 17 Sudoeste 0 -- -- 28
2019-08-18 19:00:00 33.3 5 Sur 9 Sudoeste 0 -- -- 20
2019-08-18 18:00:00 32.3 8 Sur 11 Sur 0 -- -- 21
2019-08-18 17:00:00 34 4 Sur 17 Oeste 0 -- -- 19
2019-08-18 16:00:00 34.3 4 Sur 13 Sudeste 0 -- -- 16
2019-08-18 15:00:00 34.3 4 Sur 8 Sudeste 0 -- -- 16
2019-08-18 14:00:00 33.3 5 Sudeste 8 Sudoeste 0 -- -- 24
2019-08-18 13:00:00 31.8 6 Sur 10 Sudeste 0 -- -- 27
2019-08-18 12:00:00 30.1 7 Sur 10 Sur 0 -- -- 32
2019-08-18 11:00:00 27.8 6 Sudoeste 12 Sudoeste 0 -- -- 40
2019-08-18 10:00:00 23.5 0 Calma 7 Sudeste 0 -- -- 58
2019-08-18 09:00:00 19.5 2 Sudeste 7 Sudeste 0 -- -- 73
2019-08-18 08:00:00 17 0 Calma 7 Sudeste 0 -- -- 80
2019-08-18 07:00:00 17.3 0 Calma 9 Sur 0 -- -- 77
2019-08-18 06:00:00 17.5 2 Sudeste 6 Sur 0 -- -- 76
2019-08-18 05:00:00 18.2 4 Sudeste 7 Sudeste 0 -- -- 73
2019-08-18 04:00:00 19.3 0 Calma 8 Este 0 -- -- 66
2019-08-18 03:00:00 19.2 2 Sur 8 Este 0 -- -- 62
2019-08-18 02:00:00 19.4 2 Sudeste 8 Este 0 -- -- 56
2019-08-18 01:00:00 20.8 0 Calma 10 Noroeste 0 -- -- 50
2019-08-18 00:00:00 20.6 0 Calma 9 Sudeste 0 -- -- 49
2019-08-17 23:00:00 23.2 2 Nordeste 9 Norte 0 -- -- 39
2019-08-17 22:00:00 25.7 3 Norte 8 Noroeste 0 -- -- 35
2019-08-17 21:00:00 28.8 3 Sudeste 6 Este 0 -- -- 28
2019-08-17 20:00:00 33.6 3 Sur 8 Oeste 0 -- -- 20
2019-08-17 19:00:00 34.2 6 Sur 8 Sudoeste 0 -- -- 19
2019-08-17 18:00:00 34.3 4 Sudeste 8 Sudeste 0 -- -- 18
2019-08-17 17:00:00 34.5 4 Sudeste 8 Sudeste 0 -- -- 20
2019-08-17 16:00:00 34.3 4 Sur 8 Sudeste 0 -- -- 19
2019-08-17 15:00:00 34.1 4 Sur 8 Sudoeste 0 -- -- 21
2019-08-17 14:00:00 33.4 5 Sur 8 Noroeste 0 -- -- 23
2019-08-17 13:00:00 32.1 5 Sur 8 Sur 0 -- -- 23
2019-08-17 12:00:00 29.6 3 Sudeste 8 Este 0 -- -- 29
2019-08-17 11:00:00 25.7 4 Este 7 Sudeste 0 -- -- 39
2019-08-17 10:00:00 20.8 2 Este 6 Sur 0 -- -- 49
2019-08-17 09:00:00 17.2 0 Calma 6 Este 0 -- -- 69
2019-08-17 08:00:00 14.2 3 Sudeste 6 Este 0 -- -- 72
2019-08-17 07:00:00 14.4 0 Calma 8 Nordeste 0 -- -- 70
2019-08-17 06:00:00 14.8 0 Calma 6 Sudeste 0 -- -- 68
2019-08-17 05:00:00 14.8 5 Este 8 Este 0 -- -- 68
2019-08-17 04:00:00 15.2 0 Calma 6 Este 0 -- -- 71
2019-08-17 03:00:00 16 0 Calma 6 Este 0 -- -- 66
2019-08-17 02:00:00 16.9 2 Este 5 Este 0 -- -- 58
2019-08-17 01:00:00 17.7 0 Calma 6 Este 0 -- -- 53
2019-08-17 00:00:00 18.9 0 Calma 6 Sudeste 0 -- -- 49
2019-08-16 23:00:00 20.3 4 Sudeste 8 Este 0 -- -- 45
2019-08-16 22:00:00 23.9 0 Calma 9 Noroeste 0 -- -- 40
2019-08-16 21:00:00 27.9 4 Oeste 10 Sudoeste 0 -- -- 30
2019-08-16 20:00:00 30.9 6 Oeste 11 Sudoeste 0 -- -- 21
2019-08-16 19:00:00 31.4 7 Oeste 20 Noroeste 0 -- -- 20
2019-08-16 18:00:00 30.9 8 Noroeste 16 Noroeste 0 -- -- 20
2019-08-16 17:00:00 30.7 5 Noroeste 20 Oeste 0 -- -- 20
2019-08-16 16:00:00 30.9 8 Oeste 24 Oeste 0 -- -- 16
2019-08-16 15:00:00 31.1 7 Oeste 10 Sudoeste 0 -- -- 15
2019-08-16 14:00:00 30.3 6 Sudeste 11 Sudeste 0 -- -- 13
2019-08-16 13:00:00 28.6 6 Sur 12 Sudeste 0 -- -- 17
2019-08-16 12:00:00 26.2 6 Sur 12 Sudeste 0 -- -- 22
2019-08-16 11:00:00 21.3 3 Este 6 Este 0 -- -- 45
2019-08-16 10:00:00 15.9 2 Este 5 Sudeste 0 -- -- 60
2019-08-16 09:00:00 11.7 2 Este 5 Norte 0 -- -- 80
2019-08-16 08:00:00 9.1 2 Nordeste 6 Sur 0 -- -- 85
2019-08-16 07:00:00 9.1 2 Sudeste 10 Oeste 0 -- -- 82
2019-08-16 06:00:00 9.7 2 Sur 9 Oeste 0 -- -- 79
2019-08-16 05:00:00 10.6 0 Calma 6 Este 0 -- -- 77
2019-08-16 04:00:00 11.2 0 Calma 5 Sudeste 0 -- -- 74
2019-08-16 03:00:00 12 0 Calma 5 Este 0 -- -- 76
2019-08-16 02:00:00 13.3 3 Este 5 Sudeste 0 -- -- 70
2019-08-16 01:00:00 14.6 4 Este 8 Sudeste 0 -- -- 62
2019-08-16 00:00:00 16.4 2 Sur 8 Sudeste 0 -- -- 56
2019-08-15 23:00:00 18.2 3 Sudoeste 18 Oeste 0 -- -- 49
2019-08-15 22:00:00 20.2 10 Oeste 18 Noroeste 0 -- -- 44
2019-08-15 21:00:00 22.5 10 Oeste 28 Oeste 0 -- -- 35
2019-08-15 20:00:00 25.6 17 Oeste 32 Oeste 0 -- -- 26
2019-08-15 19:00:00 27.7 12 Oeste 37 Sudoeste 0 -- -- 25
2019-08-15 18:00:00 28.4 12 Oeste 29 Oeste 0 -- -- 22
2019-08-15 17:00:00 28.4 10 Oeste 30 Oeste 0 -- -- 22
2019-08-15 16:00:00 28.1 13 Oeste 26 Oeste 0 -- -- 29
2019-08-15 15:00:00 27.5 13 Oeste 28 Noroeste 0 -- -- 30
2019-08-15 14:00:00 27.2 11 Oeste 28 Oeste 0 -- -- 33
2019-08-15 13:00:00 25.5 14 Oeste 26 Oeste 0 -- -- 39
2019-08-15 12:00:00 24.1 9 Oeste 16 Oeste 0 -- -- 46
2019-08-15 11:00:00 21.4 4 Oeste 11 Oeste 0 -- -- 58
2019-08-15 10:00:00 18.5 6 Norte 10 Nordeste 0 -- -- 70
2019-08-15 09:00:00 15.8 0 Calma 6 Este 0 -- -- 76
2019-08-15 08:00:00 14.1 2 Sudeste 8 Sudoeste 0 -- -- 83
2019-08-15 07:00:00 13.7 3 Este 5 Sudeste 0 -- -- 85
2019-08-15 06:00:00 13.8 2 Sur 6 Este 0 -- -- 82
2019-08-15 05:00:00 14.1 0 Calma 6 Este 0 -- -- 80
2019-08-15 04:00:00 14.7 0 Calma 6 Nordeste 0 -- -- 77
2019-08-15 03:00:00 15.8 3 Sur 10 Este 0 -- -- 73
2019-08-15 02:00:00 16.5 2 Sudeste 7 Norte 0 -- -- 69
2019-08-15 01:00:00 17.6 3 Nordeste 8 Nordeste 0 -- -- 67
2019-08-15 00:00:00 19.7 5 Nordeste 21 Oeste 0 -- -- 57
2019-08-14 23:00:00 21 10 Oeste 18 Oeste 0 -- -- 52
2019-08-14 22:00:00 22.4 4 Este 23 Oeste 0 -- -- 48
2019-08-14 21:00:00 24.1 16 Sudoeste 32 Sudoeste 0 -- -- 42
2019-08-14 20:00:00 26.9 16 Sudoeste 32 Sudoeste 0 -- -- 34
2019-08-14 19:00:00 28.5 13 Oeste 37 Sudoeste 0 -- -- 30
2019-08-14 18:00:00 28.9 14 Sudoeste 37 Sudoeste 0 -- -- 26
2019-08-14 17:00:00 29.4 10 Sudoeste 32 Oeste 0 -- -- 25
2019-08-14 16:00:00 29 11 Oeste 22 Oeste 0 -- -- 24
2019-08-14 15:00:00 28 10 Oeste 14 Noroeste 0 -- -- 22
2019-08-14 14:00:00 26.5 9 Noroeste 22 Oeste 0 -- -- 22
2019-08-14 13:00:00 25.1 13 Oeste 27 Oeste 0 -- -- 22
2019-08-14 12:00:00 22.7 5 Este 12 Sudeste 0 -- -- 31
2019-08-14 11:00:00 18.7 4 Este 9 Nordeste 0 -- -- 43
2019-08-14 10:00:00 13.6 2 Sudeste 6 Norte 0 -- -- 58
2019-08-14 09:00:00 10.2 0 Calma 6 Este 0 -- -- 72
2019-08-14 08:00:00 7.5 0 Calma 8 Sudoeste 0 -- -- 83
2019-08-14 07:00:00 7.9 0 Calma 7 Nordeste 0 -- -- 84
2019-08-14 06:00:00 7.9 3 Sudeste 5 Este 0 -- -- 84
2019-08-14 05:00:00 9.2 3 Este 8 Noroeste 0 -- -- 82
2019-08-14 04:00:00 9.3 0 Calma 6 Sudeste 0 -- -- 82
2019-08-14 03:00:00 10.1 0 Calma 5 Nordeste 0 -- -- 77
2019-08-14 02:00:00 11.6 0 Calma 6 Nordeste 0 -- -- 71
2019-08-14 01:00:00 12.6 4 Este 8 Sudoeste 0 -- -- 67
2019-08-14 00:00:00 13.8 4 Sudeste 8 Sur 0 -- -- 61
2019-08-13 23:00:00 15.9 4 Sudoeste 13 Oeste 0 -- -- 53
2019-08-13 22:00:00 18.1 8 Oeste 21 Oeste 0 -- -- 46
2019-08-13 21:00:00 20.2 8 Oeste 26 Oeste 0 -- -- 39
2019-08-13 20:00:00 22.9 12 Oeste 28 Oeste 0 -- -- 34
2019-08-13 19:00:00 24.6 14 Oeste 24 Oeste 0 -- -- 32
2019-08-13 18:00:00 25.2 13 Oeste 31 Oeste 0 -- -- 29
2019-08-13 17:00:00 24.8 12 Oeste 22 Noroeste 0 -- -- 29
2019-08-13 16:00:00 24.7 12 Oeste 26 Oeste 0 -- -- 27
2019-08-13 15:00:00 24.1 13 Oeste 20 Oeste 0 -- -- 30
2019-08-13 14:00:00 22.4 12 Oeste 18 Oeste 0 -- -- 36
2019-08-13 13:00:00 21.6 6 Este 11 Sudeste 0 -- -- 41
2019-08-13 12:00:00 18.4 6 Este 10 Este 0 -- -- 51
2019-08-13 11:00:00 15.1 3 Sur 9 Sudoeste 0 -- -- 59
2019-08-13 10:00:00 13.4 4 Sudoeste 9 Oeste 0 -- -- 65
2019-08-13 09:00:00 11.7 3 Sudeste 8 Este 0 -- -- 74
2019-08-13 08:00:00 10.6 3 Sudoeste 6 Sudoeste 0 -- -- 77
2019-08-13 07:00:00 10.6 2 Este 4 Este 0 -- -- 79
2019-08-13 06:00:00 10.9 2 Este 7 Este 0 -- -- 74
2019-08-13 05:00:00 11.5 3 Sudeste 8 Oeste 0 -- -- 73
2019-08-13 04:00:00 11.5 3 Sudeste 7 Sudeste 0 -- -- 72
2019-08-13 03:00:00 11.5 3 Sudeste 15 Este 0 -- -- 69
2019-08-13 02:00:00 12.4 0 Calma 9 Oeste 0 -- -- 69
2019-08-13 01:00:00 13.3 7 Oeste 15 Sudoeste 0 -- -- 64
2019-08-13 00:00:00 14.3 2 Sudoeste 12 Sudoeste 0 -- -- 58
2019-08-12 23:00:00 15.5 8 Sudoeste 21 Sudoeste 0 -- -- 51
2019-08-12 22:00:00 16.8 13 Oeste 24 Oeste 0 -- -- 47
2019-08-12 21:00:00 18.3 10 Noroeste 27 Oeste 0 -- -- 44
2019-08-12 20:00:00 21 14 Oeste 37 Oeste 0 -- -- 38
2019-08-12 19:00:00 22.3 15 Oeste 34 Oeste 0 -- -- 36
2019-08-12 18:00:00 23.7 19 Oeste 36 Sudoeste 0 -- -- 33
2019-08-12 17:00:00 24 16 Oeste 32 Oeste 0 -- -- 33
2019-08-12 16:00:00 24.3 17 Oeste 37 Noroeste 0 -- -- 33
2019-08-12 15:00:00 23.4 19 Oeste 36 Noroeste 0 -- -- 34
2019-08-12 14:00:00 23.6 16 Oeste 28 Oeste 0 -- -- 36
2019-08-12 13:00:00 22.9 8 Noroeste 23 Noroeste 0 -- -- 40
2019-08-12 12:00:00 21.2 8 Noroeste 18 Noroeste 0 -- -- 46
2019-08-12 11:00:00 18.6 6 Noroeste 15 Oeste 0 -- -- 56
2019-08-12 10:00:00 15.6 3 Sudoeste 8 Sudoeste 0 -- -- 71
2019-08-12 09:00:00 13.8 0 Calma 6 Este 0 -- -- 79
2019-08-12 08:00:00 12 5 Este 8 Este 0 -- -- 85
2019-08-12 07:00:00 12.1 4 Sudeste 6 Este 0 -- -- 85
2019-08-12 06:00:00 12.6 2 Este 8 Este 0 -- -- 82
2019-08-12 05:00:00 14.3 0 Calma 11 Noroeste 0 -- -- 77
2019-08-12 04:00:00 15 6 Sudoeste 14 Sudoeste 0 -- -- 73
2019-08-12 03:00:00 16 5 Sudoeste 14 Noroeste 0 -- -- 69
2019-08-12 02:00:00 16.7 5 Noroeste 14 Norte 0 -- -- 67
2019-08-12 01:00:00 17 3 Este 17 Noroeste 0 -- -- 65
2019-08-12 00:00:00 17.9 6 Noroeste 17 Sudoeste 0 -- -- 62
2019-08-11 23:00:00 18.8 3 Sudoeste 20 Noroeste 0 -- -- 58
2019-08-11 22:00:00 20.5 8 Oeste 30 Sudoeste 0 -- -- 49
2019-08-11 21:00:00 22.6 15 Oeste 31 Oeste 0 -- -- 46
2019-08-11 20:00:00 26 14 Oeste 22 Oeste 0 -- -- 33
2019-08-11 19:00:00 27.4 10 Oeste 18 Oeste 0 -- -- 26
2019-08-11 18:00:00 27.3 10 Oeste 16 Oeste 0 -- -- 28
2019-08-11 17:00:00 27.3 10 Oeste 20 Oeste 0 -- -- 33
2019-08-11 16:00:00 25.3 12 Oeste 24 Oeste 0 -- -- 41
2019-08-11 15:00:00 24.7 11 Oeste 22 Oeste 0 -- -- 53
2019-08-11 14:00:00 22.7 12 Oeste 24 Oeste 0 -- -- 64
2019-08-11 13:00:00 23.8 10 Oeste 16 Oeste 0 -- -- 61
2019-08-11 12:00:00 20.6 4 Sudoeste 10 Oeste 0 -- -- 73
2019-08-11 11:00:00 17.2 3 Nordeste 25 Sudoeste 0.6 -- -- 85
2019-08-11 10:00:00 17.8 14 Oeste 34 Oeste 0.2 -- -- 81
2019-08-11 09:00:00 22.7 10 Sudeste 28 Este 0 -- -- 64
2019-08-11 08:00:00 22.3 5 Sudeste 27 Este 0 -- -- 67
2019-08-11 07:00:00 22.5 11 Sudeste 26 Este 0 -- -- 66
2019-08-11 06:00:00 20.8 14 Este 27 Este 0 -- -- 71
2019-08-11 05:00:00 18.2 3 Este 5 Norte 0 -- -- 67
2019-08-11 04:00:00 18.5 0 Calma 6 Este 0 -- -- 61
2019-08-11 03:00:00 17.8 2 Este 5 Este 0 -- -- 61
2019-08-11 02:00:00 17.8 3 Sudeste 6 Sudeste 0 -- -- 62
2019-08-11 01:00:00 18.8 4 Sudeste 8 Sudeste 0 -- -- 59
2019-08-11 00:00:00 20.7 0 Calma 10 Oeste 0 -- -- 57
2019-08-10 23:00:00 22.6 7 Oeste 12 Oeste 0 -- -- 42
2019-08-10 22:00:00 24.4 3 Sudoeste 12 Oeste 0 -- -- 35
2019-08-10 21:00:00 26.3 0 Calma 7 Este 0 -- -- 33
2019-08-10 20:00:00 28.2 4 Este 15 Oeste 0 -- -- 30
2019-08-10 19:00:00 27.4 10 Oeste 17 Oeste 0 -- -- 30
2019-08-10 18:00:00 28 8 Noroeste 15 Noroeste 0 -- -- 29
2019-08-10 17:00:00 28.8 10 Noroeste 23 Oeste 0 -- -- 26
2019-08-10 16:00:00 29.6 7 Oeste 21 Sudoeste 0 -- -- 27
2019-08-10 15:00:00 29.5 7 Este 12 Norte 0 -- -- 25
2019-08-10 14:00:00 27.5 7 Oeste 26 Noroeste 0 -- -- 28
2019-08-10 13:00:00 26.3 11 Oeste 14 Noroeste 0 -- -- 30
2019-08-10 12:00:00 25.5 7 Este 12 Este 0 -- -- 42
2019-08-10 11:00:00 22.3 4 Nordeste 13 Oeste 0 -- -- 61
2019-08-10 10:00:00 18.7 4 Sudeste 7 Este 0 -- -- 80
2019-08-10 09:00:00 17.5 4 Este 10 Norte 0 -- -- 82
2019-08-10 08:00:00 16.6 5 Nordeste 9 Sudoeste 0 -- -- 90
2019-08-10 07:00:00 16 3 Sur 8 Sudoeste 0 -- -- 90
2019-08-10 06:00:00 15.8 4 Este 7 Este 0 -- -- 86
2019-08-10 05:00:00 16.7 0 Calma 6 Este 0 -- -- 84
2019-08-10 04:00:00 17.7 0 Calma 6 Nordeste 0 -- -- 81
2019-08-10 03:00:00 18.5 0 Calma 6 Sudeste 0 -- -- 81
2019-08-10 02:00:00 19.6 0 Calma 14 Este 0 -- -- 77
2019-08-10 01:00:00 20.1 2 Sudeste 10 Sur 0 -- -- 78
2019-08-10 00:00:00 21.6 2 Nordeste 26 Oeste 0 -- -- 71
2019-08-09 23:00:00 23.5 10 Oeste 27 Oeste 0 -- -- 70
2019-08-09 22:00:00 24.3 13 Oeste 37 Oeste 0 -- -- 62
2019-08-09 21:00:00 29.5 12 Sudoeste 19 Oeste 0 -- -- 35
2019-08-09 20:00:00 31.2 8 Sudoeste 12 Sudoeste 0 -- -- 28
2019-08-09 19:00:00 33.3 7 Sur 10 Sur 0 -- -- 25
2019-08-09 18:00:00 34.9 4 Este 6 Sudeste 0 -- -- 22
2019-08-09 17:00:00 34.1 5 Sudeste 10 Sur 0 -- -- 24
2019-08-09 16:00:00 33.8 4 Sur 9 Sur 0 -- -- 24
2019-08-09 15:00:00 34.6 4 Sur 7 Sur 0 -- -- 24
2019-08-09 14:00:00 33.4 4 Sudoeste 9 Sudeste 0 -- -- 24
2019-08-09 13:00:00 31.9 7 Sur 9 Sur 0 -- -- 27
2019-08-09 12:00:00 31.1 6 Sur 9 Sudeste 0 -- -- 29
2019-08-09 11:00:00 29 5 Sudeste 9 Sudeste 0 -- -- 37
2019-08-09 10:00:00 24.2 4 Nordeste 9 Este 0 -- -- 56
2019-08-09 09:00:00 20.4 3 Este 5 Este 0 -- -- 68
2019-08-09 08:00:00 17.7 0 Calma 5 Este 0 -- -- 76
2019-08-09 07:00:00 17.8 0 Calma 8 Este 0 -- -- 75
2019-08-09 06:00:00 18.3 3 Este 7 Sudeste 0 -- -- 71
2019-08-09 05:00:00 19.2 0 Calma 9 Este 0 -- -- 67
2019-08-09 04:00:00 19.4 3 Sudeste 9 Este 0 -- -- 67
2019-08-09 03:00:00 19.7 3 Este 8 Este 0 -- -- 65
2019-08-09 02:00:00 20.2 0 Calma 6 Sudeste 0 -- -- 61
2019-08-09 01:00:00 21.6 2 Sudeste 6 Sur 0 -- -- 57
2019-08-09 00:00:00 22.6 0 Calma 7 Este 0 -- -- 55
2019-08-08 23:00:00 24.1 3 Este 6 Este 0 -- -- 47
2019-08-08 22:00:00 26.1 4 Norte 8 Norte 0 -- -- 43
2019-08-08 21:00:00 29.4 0 Calma 10 Sur 0 -- -- 34
2019-08-08 20:00:00 32.2 4 Sur 12 Sudoeste 0 -- -- 28
2019-08-08 19:00:00 31 9 Sur 13 Sur 0 -- -- 30
2019-08-08 18:00:00 32.5 5 Sur 11 Sur 0 -- -- 27
2019-08-08 17:00:00 32.3 5 Sudoeste 9 Sudoeste 0 -- -- 28
2019-08-08 16:00:00 31.5 6 Sur 10 Sur 0 -- -- 31
2019-08-08 15:00:00 30.9 7 Este 13 Sudoeste 0 -- -- 32
2019-08-08 14:00:00 31.1 6 Sur 9 Sudeste 0 -- -- 33
2019-08-08 13:00:00 29.1 6 Sur 11 Sur 0 -- -- 35
2019-08-08 12:00:00 27.7 7 Sur 13 Sur 0 -- -- 35
2019-08-08 11:00:00 25.5 6 Sur 11 Sur 0 -- -- 46
2019-08-08 10:00:00 22.2 5 Este 8 Nordeste 0 -- -- 62
2019-08-08 09:00:00 19.2 0 Calma 5 Nordeste 0 -- -- 76
2019-08-08 08:00:00 17.6 0 Calma 5 Sudeste 0 -- -- 79
2019-08-08 07:00:00 18.3 3 Este 5 Este 0 -- -- 77
2019-08-08 06:00:00 18.8 3 Sudeste 6 Este 0 -- -- 77
2019-08-08 05:00:00 18.9 0 Calma 6 Nordeste 0 -- -- 75
2019-08-08 04:00:00 19.1 4 Este 7 Este 0 -- -- 74
2019-08-08 03:00:00 19.9 0 Calma 4 Este 0 -- -- 71
2019-08-08 02:00:00 20.7 3 Nordeste 4 Nordeste 0 -- -- 70
2019-08-08 01:00:00 20.9 3 Sudeste 6 Este 0 -- -- 65
2019-08-08 00:00:00 21.6 2 Norte 9 Oeste 0 -- -- 62
2019-08-07 23:00:00 22.6 2 Norte 9 Norte 0 -- -- 59
2019-08-07 22:00:00 24.5 5 Norte 10 Oeste 0 -- -- 49
2019-08-07 21:00:00 25.9 6 Sur 15 Sudoeste 0 -- -- 43
2019-08-07 20:00:00 27 7 Sur 17 Sudeste 0 -- -- 40
2019-08-07 19:00:00 27.6 9 Sur 25 Sur 0 -- -- 37
2019-08-07 18:00:00 28.6 12 Oeste 22 Oeste 0 -- -- 32
2019-08-07 17:00:00 29.1 12 Oeste 31 Noroeste 0 -- -- 28
2019-08-07 16:00:00 29.7 10 Oeste 29 Oeste 0 -- -- 28
2019-08-07 15:00:00 28.8 10 Oeste 28 Oeste 0 -- -- 30
2019-08-07 14:00:00 29.3 8 Oeste 24 Oeste 0 -- -- 33
2019-08-07 13:00:00 27.4 11 Sudoeste 16 Sudoeste 0 -- -- 38
2019-08-07 12:00:00 28.1 7 Nordeste 11 Nordeste 0 -- -- 46
2019-08-07 11:00:00 24.7 2 Este 6 Este 0 -- -- 56
2019-08-07 10:00:00 21.7 0 Calma 8 Este 0 -- -- 67
2019-08-07 09:00:00 20.3 2 Norte 6 Norte 0 -- -- 72
2019-08-07 08:00:00 19.4 3 Este 10 Noroeste 0 -- -- 78
2019-08-07 07:00:00 19.3 4 Oeste 10 Oeste 0 -- -- 77
2019-08-07 06:00:00 19.5 5 Oeste 12 Noroeste 0 -- -- 76
2019-08-07 05:00:00 19.8 6 Noroeste 10 Noroeste 0 -- -- 73
2019-08-07 04:00:00 18.9 0 Calma 6 Este 0 -- -- 65
2019-08-07 03:00:00 19.1 0 Calma 7 Nordeste 0 -- -- 64
2019-08-07 02:00:00 20 0 Calma 4 Este 0 -- -- 59
2019-08-07 01:00:00 20.9 0 Calma 8 Este 0 -- -- 55
2019-08-07 00:00:00 21.8 4 Nordeste 7 Este 0 -- -- 52
2019-08-06 23:00:00 23.2 2 Sudeste 6 Sudeste 0 -- -- 48
2019-08-06 22:00:00 25.6 3 Sudeste 8 Este 0 -- -- 40
2019-08-06 21:00:00 27.3 5 Sudeste 8 Este 0 -- -- 39
2019-08-06 20:00:00 30.9 5 Sudoeste 11 Oeste 0 -- -- 26
2019-08-06 19:00:00 31.9 7 Sudoeste 11 Sudoeste 0 -- -- 22
2019-08-06 18:00:00 33.3 6 Sur 9 Sur 0 -- -- 17
2019-08-06 17:00:00 33.5 4 Sudoeste 9 Oeste 0 -- -- 21
2019-08-06 16:00:00 32.2 8 Oeste 17 Oeste 0 -- -- 24
2019-08-06 15:00:00 32.5 4 Oeste 15 Sudoeste 0 -- -- 27
2019-08-06 14:00:00 32.7 6 Sur 8 Sur 0 -- -- 25
2019-08-06 13:00:00 31.9 5 Sur 9 Sudeste 0 -- -- 29
2019-08-06 12:00:00 30 7 Sur 9 Sudoeste 0 -- -- 36
2019-08-06 11:00:00 27.3 4 Nordeste 15 Oeste 0 -- -- 41
2019-08-06 10:00:00 23.1 2 Sur 5 Este 0 -- -- 55
2019-08-06 09:00:00 19.3 0 Calma 6 Sudeste 0 -- -- 70
2019-08-06 08:00:00 17.1 2 Sur 9 Sudeste 0 -- -- 77
2019-08-06 07:00:00 16.9 3 Sudeste 9 Este 0 -- -- 78
2019-08-06 06:00:00 17.2 3 Este 7 Este 0 -- -- 76
2019-08-06 05:00:00 17.6 0 Calma 4 Sudoeste 0 -- -- 70
2019-08-06 04:00:00 17.7 2 Este 6 Sudeste 0 -- -- 69
2019-08-06 03:00:00 18.2 2 Sudeste 6 Este 0 -- -- 66
2019-08-06 02:00:00 19.4 0 Calma 6 Sudeste 0 -- -- 62
2019-08-06 01:00:00 20.7 2 Oeste 9 Sudeste 0 -- -- 54
2019-08-06 00:00:00 21.7 4 Nordeste 9 Este 0 -- -- 54
2019-08-05 23:00:00 24.9 3 Noroeste 9 Noroeste 0 -- -- 39
2019-08-05 22:00:00 27.2 5 Este 11 Este 0 -- -- 37
2019-08-05 21:00:00 30.1 5 Sur 12 Sur 0 -- -- 28
2019-08-05 20:00:00 33 5 Sur 9 Sur 0 -- -- 22
2019-08-05 19:00:00 33.6 5 Sur 9 Sudoeste 0 -- -- 21
2019-08-05 18:00:00 34.5 4 Sudeste 8 Sur 0 -- -- 18
2019-08-05 17:00:00 34.5 4 Sur 7 Sudeste 0 -- -- 18
2019-08-05 16:00:00 34.5 4 Sur 8 Oeste 0 -- -- 20
2019-08-05 15:00:00 34.4 5 Sudeste 8 Sudeste 0 -- -- 21
2019-08-05 14:00:00 33.6 4 Sur 8 Sur 0 -- -- 23
2019-08-05 13:00:00 31.9 5 Sudoeste 8 Sur 0 -- -- 30
2019-08-05 12:00:00 29.8 3 Sur 7 Sudoeste 0 -- -- 38
2019-08-05 11:00:00 25.8 4 Este 8 Este 0 -- -- 51
2019-08-05 10:00:00 21.6 4 Este 6 Este 0 -- -- 63
2019-08-05 09:00:00 18.8 2 Este 6 Este 0 -- -- 74
2019-08-05 08:00:00 16.2 3 Sudeste 7 Oeste 0 -- -- 81
2019-08-05 07:00:00 16 3 Sudeste 6 Oeste 0 -- -- 79
2019-08-05 06:00:00 16.7 0 Calma 10 Oeste 0 -- -- 75
2019-08-05 05:00:00 16.8 2 Sudeste 6 Sur 0 -- -- 74
2019-08-05 04:00:00 17.1 0 Calma 4 Este 0 -- -- 72
2019-08-05 03:00:00 17.8 3 Sudeste 6 Este 0 -- -- 68
2019-08-05 02:00:00 18.8 0 Calma 4 Nordeste 0 -- -- 61
2019-08-05 01:00:00 20.2 2 Sudeste 6 Nordeste 0 -- -- 54
2019-08-05 00:00:00 22.4 3 Nordeste 10 Noroeste 0 -- -- 48
2019-08-04 23:00:00 25.1 8 Noroeste 12 Norte 0 -- -- 33
2019-08-04 22:00:00 27.5 3 Noroeste 15 Sudeste 0 -- -- 32
2019-08-04 21:00:00 30.9 4 Sudoeste 9 Oeste 0 -- -- 24
2019-08-04 20:00:00 34 5 Oeste 8 Sudeste 0 -- -- 19
2019-08-04 19:00:00 34.6 4 Sur 8 Sudeste 0 -- -- 14
2019-08-04 18:00:00 34.8 4 Sudeste 7 Sudeste 0 -- -- 15
2019-08-04 17:00:00 35.1 3 Sur 6 Sudeste 0 -- -- 15
2019-08-04 16:00:00 34.8 4 Sur 6 Sudeste 0 -- -- 17
2019-08-04 15:00:00 34.6 4 Sudoeste 7 Sudeste 0 -- -- 17
2019-08-04 14:00:00 33.4 4 Sur 8 Sudoeste 0 -- -- 25
2019-08-04 13:00:00 32.4 4 Sudeste 7 Sudeste 0 -- -- 29
2019-08-04 12:00:00 29.8 3 Este 8 Este 0 -- -- 37
2019-08-04 11:00:00 26.2 4 Sudeste 8 Norte 0 -- -- 46
2019-08-04 10:00:00 21.4 2 Este 6 Este 0 -- -- 57
2019-08-04 09:00:00 18.1 2 Sudeste 4 Nordeste 0 -- -- 72
2019-08-04 08:00:00 15.8 0 Calma 9 Sudoeste 0 -- -- 80
2019-08-04 07:00:00 16 7 Sudoeste 11 Oeste 0 -- -- 74
2019-08-04 06:00:00 16.4 2 Sudeste 6 Sudeste 0 -- -- 77
2019-08-04 05:00:00 17.2 0 Calma 6 Este 0 -- -- 72
2019-08-04 04:00:00 17.9 3 Sur 9 Este 0 -- -- 69
2019-08-04 03:00:00 18.1 3 Sudeste 6 Este 0 -- -- 67
2019-08-04 02:00:00 18.4 2 Sudeste 6 Este 0 -- -- 66
2019-08-04 01:00:00 19.7 3 Este 6 Este 0 -- -- 59
2019-08-04 00:00:00 21.4 2 Este 5 Sudeste 0 -- -- 53
2019-08-03 23:00:00 23.5 3 Este 12 Noroeste 0 -- -- 43
2019-08-03 22:00:00 27.2 2 Sudeste 13 Sur 0 -- -- 35
2019-08-03 21:00:00 30.1 9 Sudoeste 14 Sudoeste 0 -- -- 26
2019-08-03 20:00:00 32.7 4 Sudoeste 10 Oeste 0 -- -- 22
2019-08-03 19:00:00 33.8 5 Sudoeste 8 Oeste 0 -- -- 17
2019-08-03 18:00:00 33.9 5 Sudoeste 8 Sudoeste 0 -- -- 18
2019-08-03 17:00:00 34 4 Sur 8 Sur 0 -- -- 20
2019-08-03 16:00:00 33.7 5 Sur 8 Sudeste 0 -- -- 22
2019-08-03 15:00:00 33.4 5 Sudeste 8 Sudeste 0 -- -- 23
2019-08-03 14:00:00 32.1 6 Sudeste 8 Sur 0 -- -- 25
2019-08-03 13:00:00 30.7 4 Sur 9 Sudoeste 0 -- -- 27
2019-08-03 12:00:00 28.9 4 Sudeste 8 Sudeste 0 -- -- 27
2019-08-03 11:00:00 24.8 3 Este 8 Este 0 -- -- 36
2019-08-03 10:00:00 20 3 Este 5 Este 0 -- -- 51
2019-08-03 09:00:00 16.1 0 Calma 5 Este 0 -- -- 62
2019-08-03 08:00:00 12.9 2 Sudeste 5 Sudeste 0 -- -- 80
2019-08-03 07:00:00 12.6 0 Calma 5 Sudeste 0 -- -- 77
2019-08-03 06:00:00 12.8 3 Este 8 Este 0 -- -- 76
2019-08-03 05:00:00 13.1 0 Calma 6 Sudoeste 0 -- -- 77
2019-08-03 04:00:00 14 0 Calma 8 Este 0 -- -- 77
2019-08-03 03:00:00 14.1 5 Sudeste 8 Este 0 -- -- 73
2019-08-03 02:00:00 15.4 2 Norte 8 Este 0 -- -- 72
2019-08-03 01:00:00 16.2 4 Sudeste 7 Este 0 -- -- 65
2019-08-03 00:00:00 18.3 3 Este 6 Nordeste 0 -- -- 55
2019-08-02 23:00:00 21 4 Nordeste 10 Noroeste 0 -- -- 48
2019-08-02 22:00:00 25.2 9 Noroeste 18 Noroeste 0 -- -- 32
2019-08-02 21:00:00 27.2 9 Sudoeste 15 Sudoeste 0 -- -- 25
2019-08-02 20:00:00 29.9 10 Oeste 22 Sudoeste 0 -- -- 23
2019-08-02 19:00:00 30.5 9 Sudoeste 23 Oeste 0 -- -- 25
2019-08-02 18:00:00 30.9 6 Oeste 11 Oeste 0 -- -- 21
2019-08-02 17:00:00 31 7 Oeste 13 Noroeste 0 -- -- 21
2019-08-02 16:00:00 30.8 6 Oeste 22 Sudoeste 0 -- -- 18
2019-08-02 15:00:00 30.3 8 Oeste 28 Oeste 0 -- -- 21
2019-08-02 14:00:00 28.9 10 Oeste 24 Oeste 0 -- -- 23
2019-08-02 13:00:00 28.6 6 Sudeste 10 Nordeste 0 -- -- 41
2019-08-02 12:00:00 25.7 4 Norte 9 Nordeste 0 -- -- 48
2019-08-02 11:00:00 22.6 6 Este 9 Este 0 -- -- 59
2019-08-02 10:00:00 18.6 3 Este 8 Nordeste 0 -- -- 73
2019-08-02 09:00:00 15.6 4 Este 5 Este 0 -- -- 87
2019-08-02 08:00:00 14 0 Calma 4 Nordeste 0 -- -- 91
2019-08-02 07:00:00 13.9 0 Calma 4 Este 0 -- -- 91
2019-08-02 06:00:00 14.6 0 Calma 4 Este 0 -- -- 90
2019-08-02 05:00:00 15.6 0 Calma 5 Este 0 -- -- 86
2019-08-02 04:00:00 16.7 0 Calma 8 Este 0 -- -- 86
2019-08-02 03:00:00 17.6 0 Calma 10 Oeste 0 -- -- 82
2019-08-02 02:00:00 19.2 4 Sudoeste 12 Oeste 0 -- -- 76
2019-08-02 01:00:00 20.2 5 Sudoeste 14 Noroeste 0 -- -- 72
2019-08-02 00:00:00 21.4 8 Oeste 16 Oeste 0 -- -- 65
2019-08-01 23:00:00 21.9 7 Noroeste 17 Noroeste 0 -- -- 60
2019-08-01 22:00:00 23.1 9 Norte 21 Norte 0 -- -- 46
2019-08-01 21:00:00 26.6 10 Oeste 17 Oeste 0 -- -- 40
2019-08-01 20:00:00 27.7 4 Sur 13 Sudoeste 0 -- -- 35
2019-08-01 19:00:00 30 8 Sur 15 Sur 0 -- -- 31
2019-08-01 18:00:00 28.7 8 Sur 14 Sudoeste 0 -- -- 33
2019-08-01 17:00:00 30.5 7 Sur 11 Sur 0 -- -- 29
2019-08-01 16:00:00 30.9 6 Sudeste 11 Nordeste 0 -- -- 29
2019-08-01 15:00:00 29 9 Nordeste 13 Nordeste 0 -- -- 32
2019-08-01 14:00:00 28.5 8 Este 11 Este 0 -- -- 34
2019-08-01 13:00:00 25.1 4 Sudeste 18 Oeste 0 -- -- 50
2019-08-01 12:00:00 22.1 13 Oeste 30 Oeste 0 -- -- 61
2019-08-01 11:00:00 22.1 14 Oeste 27 Oeste 0 -- -- 62
2019-08-01 10:00:00 20 15 Oeste 24 Oeste 0 -- -- 70
2019-08-01 09:00:00 18.5 6 Sur 9 Sudeste 0 -- -- 85
2019-08-01 08:00:00 16.8 5 Sur 10 Sudeste 0 -- -- 92
2019-08-01 07:00:00 16.2 3 Nordeste 8 Este 0 -- -- 91
2019-08-01 06:00:00 16.5 4 Sudeste 10 Sudeste 0 -- -- 91
2019-08-01 05:00:00 17 4 Sur 15 Sudeste 0.2 -- -- 89
2019-08-01 04:00:00 16.8 3 Este 12 Nordeste 1.8 -- -- 86
2019-08-01 03:00:00 17.2 3 Sur 10 Sur 0 -- -- 70
2019-08-01 02:00:00 17 3 Este 6 Este 0 -- -- 73
2019-08-01 01:00:00 17.4 3 Sudeste 9 Sudeste 0 -- -- 71
2019-08-01 00:00:00 18.1 3 Sudeste 6 Sudeste 0 -- -- 66
2019-07-31 23:00:00 20.3 3 Norte 9 Nordeste 0 -- -- 57
2019-07-31 22:00:00 21.8 4 Sudeste 8 Este 0 -- -- 47
2019-07-31 21:00:00 25.5 5 Sudoeste 16 Noroeste 0 -- -- 36
2019-07-31 20:00:00 27.6 10 Oeste 21 Oeste 0 -- -- 31
2019-07-31 19:00:00 29 8 Oeste 13 Oeste 0 -- -- 29
2019-07-31 18:00:00 29.5 7 Sur 12 Sudeste 0 -- -- 28
2019-07-31 17:00:00 29.9 8 Sudoeste 10 Sur 0 -- -- 29
2019-07-31 16:00:00 29.5 5 Sur 11 Noroeste 0 -- -- 29
2019-07-31 15:00:00 29 6 Nordeste 10 Nordeste 0 -- -- 31
2019-07-31 14:00:00 27.5 5 Sudeste 9 Sudeste 0 -- -- 33
2019-07-31 13:00:00 26.4 3 Este 9 Este 0 -- -- 33
2019-07-31 12:00:00 22.5 5 Este 9 Norte 0 -- -- 42
2019-07-31 11:00:00 18.7 4 Este 8 Nordeste 0 -- -- 51
2019-07-31 10:00:00 15.3 3 Norte 9 Noroeste 0 -- -- 65
2019-07-31 09:00:00 11.2 0 Calma 5 Este 0 -- -- 83
2019-07-31 08:00:00 8.8 0 Calma 4 Sudeste 0 -- -- 91
2019-07-31 07:00:00 8.4 0 Calma 5 Sudeste 0 -- -- 89
2019-07-31 06:00:00 8.8 0 Calma 5 Sudeste 0 -- -- 89
2019-07-31 05:00:00 9.3 4 Sur 8 Sudoeste 0 -- -- 86
2019-07-31 04:00:00 9.7 0 Calma 6 Este 0 -- -- 85
2019-07-31 03:00:00 10.8 0 Calma 6 Sudeste 0 -- -- 82
2019-07-31 02:00:00 11.2 0 Calma 6 Este 0 -- -- 80
2019-07-31 01:00:00 12.9 4 Sudeste 9 Norte 0 -- -- 72
2019-07-31 00:00:00 14.3 2 Oeste 19 Oeste 0 -- -- 66
2019-07-30 23:00:00 15.9 12 Oeste 22 Oeste 0 -- -- 61
2019-07-30 22:00:00 17.9 7 Noroeste 24 Oeste 0 -- -- 54
2019-07-30 21:00:00 19.5 17 Oeste 33 Oeste 0 -- -- 48
2019-07-30 20:00:00 21.6 19 Oeste 36 Oeste 0 -- -- 43
2019-07-30 19:00:00 23.2 20 Oeste 35 Oeste 0 -- -- 40
2019-07-30 18:00:00 24.4 17 Oeste 40 Oeste 0 -- -- 35
2019-07-30 17:00:00 25.3 16 Oeste 31 Oeste 0 -- -- 34
2019-07-30 16:00:00 25.6 12 Oeste 31 Oeste 0 -- -- 34
2019-07-30 15:00:00 25.2 13 Oeste 23 Oeste 0 -- -- 37
2019-07-30 14:00:00 24.6 9 Oeste 21 Noroeste 0 -- -- 40
2019-07-30 13:00:00 23.3 8 Noroeste 18 Noroeste 0 -- -- 45
2019-07-30 12:00:00 21 10 Norte 15 Noroeste 0 -- -- 51
2019-07-30 11:00:00 19.6 2 Norte 12 Este 0 -- -- 54
2019-07-30 10:00:00 16.2 3 Sudeste 12 Sur 0 -- -- 67
2019-07-30 09:00:00 15 8 Oeste 17 Oeste 0 -- -- 69
2019-07-30 08:00:00 14.8 6 Oeste 13 Oeste 0 -- -- 72
2019-07-30 07:00:00 14.8 5 Oeste 12 Oeste 0 -- -- 77
2019-07-30 06:00:00 14.9 2 Sudeste 6 Este 0 -- -- 78
2019-07-30 05:00:00 15 3 Sudeste 10 Norte 0 -- -- 76
2019-07-30 04:00:00 15.3 4 Sur 12 Norte 0 -- -- 74
2019-07-30 03:00:00 16.2 4 Sur 13 Nordeste 0 -- -- 72
2019-07-30 02:00:00 17.4 5 Oeste 19 Noroeste 0 -- -- 70
2019-07-30 01:00:00 18.7 4 Oeste 15 Oeste 0 -- -- 68
2019-07-30 00:00:00 19.9 5 Noroeste 18 Noroeste 0 -- -- 64
2019-07-29 23:00:00 21.9 8 Noroeste 20 Noroeste 0 -- -- 57
2019-07-29 22:00:00 24 7 Noroeste 18 Noroeste 0 -- -- 48
2019-07-29 21:00:00 26.4 3 Sudeste 6 Sudeste 0 -- -- 37
2019-07-29 20:00:00 29.9 4 Sur 10 Noroeste 0 -- -- 24
2019-07-29 19:00:00 30.2 4 Noroeste 13 Noroeste 0 -- -- 23
2019-07-29 18:00:00 30 8 Oeste 12 Oeste 0 -- -- 24
2019-07-29 17:00:00 30.3 6 Oeste 10 Noroeste 0 -- -- 24
2019-07-29 16:00:00 29.7 5 Noroeste 11 Oeste 0 -- -- 22
2019-07-29 15:00:00 29.1 8 Oeste 15 Oeste 0 -- -- 22
2019-07-29 14:00:00 27.8 10 Noroeste 13 Noroeste 0 -- -- 22
2019-07-29 13:00:00 27.3 6 Sudeste 13 Sur 0 -- -- 27
2019-07-29 12:00:00 25.2 5 Este 10 Este 0 -- -- 36
2019-07-29 11:00:00 21.2 3 Este 8 Nordeste 0 -- -- 48
2019-07-29 10:00:00 16.8 0 Calma 5 Norte 0 -- -- 61
2019-07-29 09:00:00 12.7 0 Calma 5 Sudeste 0 -- -- 86
2019-07-29 08:00:00 10.1 0 Calma 4 Sudoeste 0 -- -- 91
2019-07-29 07:00:00 9.9 0 Calma 4 Sudeste 0 -- -- 91
2019-07-29 06:00:00 10.3 0 Calma 5 Nordeste 0 -- -- 90
2019-07-29 05:00:00 10.7 0 Calma 6 Este 0 -- -- 90
2019-07-29 04:00:00 11 3 Sudeste 6 Sudeste 0 -- -- 89
2019-07-29 03:00:00 11.9 0 Calma 5 Este 0 -- -- 87
2019-07-29 02:00:00 12.5 4 Sudeste 6 Este 0 -- -- 83
2019-07-29 01:00:00 14.4 0 Calma 4 Nordeste 0 -- -- 75
2019-07-29 00:00:00 15.7 3 Nordeste 8 Este 0 -- -- 68
2019-07-28 23:00:00 17.8 2 Sur 15 Oeste 0 -- -- 62
2019-07-28 22:00:00 19.3 0 Calma 15 Oeste 0 -- -- 51
2019-07-28 21:00:00 21.6 9 Oeste 29 Noroeste 0 -- -- 43
2019-07-28 20:00:00 23.6 13 Oeste 29 Oeste 0 -- -- 38
2019-07-28 19:00:00 24.3 14 Oeste 29 Oeste 0 -- -- 35
2019-07-28 18:00:00 24.8 14 Oeste 26 Oeste 0 -- -- 35
2019-07-28 17:00:00 24.9 14 Oeste 24 Oeste 0 -- -- 35
2019-07-28 16:00:00 24.5 14 Oeste 25 Oeste 0 -- -- 35
2019-07-28 15:00:00 23.9 10 Noroeste 23 Oeste 0 -- -- 34
2019-07-28 14:00:00 23.1 10 Noroeste 20 Noroeste 0 -- -- 33
2019-07-28 13:00:00 22.3 7 Oeste 17 Sudoeste 0 -- -- 36
2019-07-28 12:00:00 20.4 4 Nordeste 14 Sudeste 0 -- -- 47
2019-07-28 11:00:00 17.9 6 Sudeste 15 Sudeste 0 -- -- 57
2019-07-28 10:00:00 14.8 4 Sur 13 Oeste 0 -- -- 66
2019-07-28 09:00:00 12.5 4 Sur 13 Sur 0 -- -- 80
2019-07-28 08:00:00 9.5 6 Este 13 Este 0 -- -- 89
2019-07-28 07:00:00 9.1 3 Sudeste 8 Este 0 -- -- 90
2019-07-28 06:00:00 9.6 3 Sur 14 Este 0 -- -- 88
2019-07-28 05:00:00 10.1 3 Este 9 Este 0 -- -- 88
2019-07-28 04:00:00 10.5 4 Sudeste 12 Este 0 -- -- 86
2019-07-28 03:00:00 11.1 3 Sudeste 10 Sudeste 0 -- -- 86
2019-07-28 02:00:00 12 0 Calma 23 Sudoeste 0 -- -- 80
2019-07-28 01:00:00 13.1 5 Sudoeste 24 Oeste 0 -- -- 72
2019-07-28 00:00:00 13.8 11 Oeste 29 Oeste 0 -- -- 70
2019-07-27 23:00:00 15.1 7 Oeste 29 Oeste 0 -- -- 64
2019-07-26 12:00:00 -- -- -- -- -- -- -- -- --
2019-07-26 11:00:00 21.7 8 Sudoeste 23 Sudoeste 0 -- -- 71
2019-07-26 10:00:00 20.8 12 Oeste 22 Oeste 0 -- -- 81
2019-07-26 09:00:00 20.3 3 Este 13 Nordeste 0.2 -- -- 82
2019-07-26 08:00:00 20.3 5 Nordeste 28 Oeste 0 -- -- 79
2019-07-26 07:00:00 22 16 Oeste 27 Oeste 0 -- -- 63
2019-07-26 06:00:00 22.6 2 Sur 9 Sur 0 -- -- 54
2019-07-26 05:00:00 23.2 4 Norte 10 Oeste 0 -- -- 50
2019-07-26 04:00:00 22.6 3 Noroeste 11 Noroeste 0 -- -- 53
2019-07-26 03:00:00 22.8 4 Sudoeste 10 Norte 0 -- -- 52
2019-07-26 02:00:00 22.1 2 Sudeste 9 Este 0 -- -- 54
2019-07-26 01:00:00 23.9 3 Este 12 Noroeste 0 -- -- 50
2019-07-26 00:00:00 25.6 3 Nordeste 9 Este 0 -- -- 40
2019-07-25 23:00:00 27.3 5 Noroeste 9 Noroeste 0 -- -- 37
2019-07-25 22:00:00 27.7 5 Este 12 Nordeste 0 -- -- 35
2019-07-25 21:00:00 30.2 7 Sudeste 23 Sudeste 0 -- -- 33
2019-07-25 20:00:00 33 8 Sudeste 24 Este 0 -- -- 21
2019-07-25 19:00:00 35.6 4 Sur 6 Sur 0 -- -- 17
2019-07-25 18:00:00 35.9 4 Sur 6 Sur 0 -- -- 16
2019-07-25 17:00:00 35.9 3 Sur 6 Sur 0 -- -- 18
2019-07-25 16:00:00 36.9 3 Sudeste 6 Nordeste 0 -- -- 17
2019-07-25 15:00:00 36.6 3 Este 7 Este 0 -- -- 17
2019-07-25 14:00:00 36 3 Este 6 Este 0 -- -- 16
2019-07-25 13:00:00 35.1 4 Nordeste 8 Norte 0 -- -- 20
2019-07-25 12:00:00 33.5 4 Nordeste 8 Noroeste 0 -- -- 21
2019-07-25 11:00:00 29.5 3 Este 9 Nordeste 0 -- -- 28
2019-07-25 10:00:00 24.7 2 Este 5 Este 0 -- -- 40
2019-07-25 09:00:00 20.9 2 Nordeste 5 Nordeste 0 -- -- 52
2019-07-25 08:00:00 18.2 3 Este 9 Sudeste 0 -- -- 56
2019-07-25 07:00:00 17.9 0 Calma 8 Sudeste 0 -- -- 58
2019-07-25 06:00:00 18.1 2 Este 6 Este 0 -- -- 56
2019-07-25 05:00:00 18.7 2 Sudeste 10 Sudeste 0 -- -- 55
2019-07-25 04:00:00 20.6 2 Sudeste 8 Sudeste 0 -- -- 47
2019-07-25 03:00:00 21.9 3 Sur 9 Este 0 -- -- 42
2019-07-25 02:00:00 21.6 0 Calma 9 Sudeste 0 -- -- 42
2019-07-25 01:00:00 22.1 4 Sudeste 12 Este 0 -- -- 42
2019-07-25 00:00:00 24.1 3 Sudoeste 17 Oeste 0 -- -- 35
2019-07-24 23:00:00 24.4 2 Sur 6 Este 0 -- -- 38
2019-07-24 22:00:00 27.9 2 Sudoeste 10 Norte 0 -- -- 29
2019-07-24 21:00:00 31.6 5 Este 11 Este 0 -- -- 23
2019-07-24 20:00:00 33.2 5 Sur 10 Sudoeste 0 -- -- 21
2019-07-24 19:00:00 34.7 4 Sudoeste 8 Este 0 -- -- 17
2019-07-24 18:00:00 35.4 5 Sur 7 Sur 0 -- -- 16
2019-07-24 17:00:00 36.2 3 Sur 7 Sur 0 -- -- 14
2019-07-24 16:00:00 35.8 5 Sudoeste 8 Sudoeste 0 -- -- 14
2019-07-24 15:00:00 35.8 3 Sur 6 Sudoeste 0 -- -- 15
2019-07-24 14:00:00 35.4 3 Sur 6 Sur 0 -- -- 17
2019-07-24 13:00:00 34.7 5 Sur 7 Sur 0 -- -- 18
2019-07-24 12:00:00 32.8 5 Sur 7 Nordeste 0 -- -- 21
2019-07-24 11:00:00 29 4 Noroeste 9 Nordeste 0 -- -- 31
2019-07-24 10:00:00 24.9 3 Sudeste 9 Norte 0 -- -- 41
2019-07-24 09:00:00 20.7 0 Calma 6 Este 0 -- -- 55
2019-07-24 08:00:00 17.5 2 Este 6 Este 0 -- -- 55
2019-07-24 07:00:00 16.8 0 Calma 6 Sudeste 0 -- -- 59
2019-07-24 06:00:00 17.4 4 Este 8 Sudeste 0 -- -- 56
2019-07-24 05:00:00 18.6 4 Sudeste 6 Sur 0 -- -- 50
2019-07-24 04:00:00 20.4 0 Calma 9 Noroeste 0 -- -- 47
2019-07-24 03:00:00 21.3 3 Sudoeste 17 Sur 0 -- -- 45
2019-07-24 02:00:00 21.5 4 Sudeste 11 Este 0 -- -- 43
2019-07-24 01:00:00 22.4 0 Calma 6 Este 0 -- -- 42
2019-07-24 00:00:00 23.6 3 Nordeste 9 Noroeste 0 -- -- 41
2019-07-23 23:00:00 27.8 5 Noroeste 9 Sudeste 0 -- -- 29
2019-07-23 22:00:00 29.4 4 Sur 12 Este 0 -- -- 23
2019-07-23 21:00:00 32.5 8 Este 11 Este 0 -- -- 20
2019-07-23 20:00:00 35.2 5 Sudeste 8 Sudeste 0 -- -- 15
2019-07-23 19:00:00 35.9 5 Sur 6 Sur 0 -- -- 14
2019-07-23 18:00:00 36.5 3 Sur 6 Sur 0 -- -- 13
2019-07-23 17:00:00 36.9 3 Sur 6 Sur 0 -- -- 14
2019-07-23 16:00:00 36.5 2 Sudoeste 6 Sudoeste 0 -- -- 14
2019-07-23 15:00:00 36.2 3 Sur 6 Sudoeste 0 -- -- 16
2019-07-23 14:00:00 35.2 4 Sur 6 Sudeste 0 -- -- 16
2019-07-23 13:00:00 35 3 Sur 7 Sudoeste 0 -- -- 18
2019-07-23 12:00:00 33 5 Sudoeste 7 Sudoeste 0 -- -- 20
2019-07-23 11:00:00 29 3 Sudeste 6 Sudeste 0 -- -- 35
2019-07-23 10:00:00 24.6 2 Este 4 Este 0 -- -- 38
2019-07-23 09:00:00 20.3 0 Calma 4 Este 0 -- -- 56
2019-07-23 08:00:00 17.3 2 Este 5 Este 0 -- -- 57
2019-07-23 07:00:00 16.3 3 Este 8 Este 0 -- -- 59
2019-07-23 06:00:00 17.1 0 Calma 6 Sudeste 0 -- -- 57
2019-07-23 05:00:00 18 0 Calma 7 Este 0 -- -- 54
2019-07-23 04:00:00 19.1 0 Calma 8 Este 0 -- -- 51
2019-07-23 03:00:00 20.3 0 Calma 7 Nordeste 0 -- -- 45
2019-07-23 02:00:00 21.4 2 Este 10 Nordeste 0 -- -- 39
2019-07-23 01:00:00 22 3 Este 12 Este 0 -- -- 42
2019-07-23 00:00:00 24.6 5 Norte 12 Nordeste 0 -- -- 33
2019-07-22 23:00:00 26.6 2 Norte 13 Este 0 -- -- 30
2019-07-22 22:00:00 28.5 7 Este 12 Este 0 -- -- 25
2019-07-22 21:00:00 31.8 4 Sudeste 11 Sudeste 0 -- -- 20
2019-07-22 20:00:00 34.5 6 Sudeste 8 Sudeste 0 -- -- 17
2019-07-22 19:00:00 35.6 3 Sur 6 Sur 0 -- -- 15
2019-07-22 18:00:00 35.8 4 Sur 6 Sur 0 -- -- 17
2019-07-22 17:00:00 35.9 2 Sur 6 Sur 0 -- -- 17
2019-07-22 16:00:00 35.9 3 Sur 6 Sur 0 -- -- 20
2019-07-22 15:00:00 36.3 2 Este 6 Sur 0 -- -- 21
2019-07-22 14:00:00 35.7 4 Este 6 Este 0 -- -- 20
2019-07-22 13:00:00 34.2 5 Este 7 Nordeste 0 -- -- 23
2019-07-22 12:00:00 32.3 4 Noroeste 7 Este 0 -- -- 24
2019-07-22 11:00:00 28.5 4 Sudeste 9 Nordeste 0 -- -- 38
2019-07-22 10:00:00 24.7 3 Norte 6 Norte 0 -- -- 47
2019-07-22 09:00:00 20.7 3 Sudeste 7 Este 0 -- -- 64
2019-07-22 08:00:00 18.1 3 Sudeste 5 Sudeste 0 -- -- 72
2019-07-22 07:00:00 17.4 4 Sudeste 9 Este 0 -- -- 73
2019-07-22 06:00:00 17.9 3 Sur 8 Sur 0 -- -- 72
2019-07-22 05:00:00 18.2 2 Sudeste 8 Este 0 -- -- 70
2019-07-22 04:00:00 18.5 4 Sudeste 8 Este 0 -- -- 69
2019-07-22 03:00:00 19.1 2 Sudeste 6 Este 0 -- -- 70
2019-07-22 02:00:00 20.2 2 Este 6 Sudeste 0 -- -- 63
2019-07-22 01:00:00 22.3 2 Sudeste 8 Sur 0 -- -- 54
2019-07-22 00:00:00 24 0 Calma 5 Sudeste 0 -- -- 49